Time;durP1;ratioP1;P1;durP2;ratioP2;P2;SDS_P1;SDS_P2;PMS_P1;PMS_P2;Temp;Humidity;BMP_temperature;BMP_pressure;BME280_temperature;BME280_humidity;BME280_pressure;Samples;Min_cycle;Max_cycle;Signal;HPM_P1;HPM_P2
2022/04/10 00:00:10;;;;;;;5.87;1.63;;;;;;;19.10;39.13;101778.16;5014621;28;20052;-57
2022/04/10 00:02:35;;;;;;;5.15;1.92;;;;;;;19.10;39.06;101772.03;5015305;28;20264;-57
2022/04/10 00:05:01;;;;;;;6.45;1.70;;;;;;;19.08;39.16;101772.13;5013819;28;20113;-57
2022/04/10 00:07:29;;;;;;;3.65;1.60;;;;;;;19.07;38.92;101772.25;5014850;28;20034;-57
2022/04/10 00:09:54;;;;;;;7.63;2.20;;;;;;;19.07;39.29;101769.59;5014330;28;20520;-57
2022/04/10 00:12:19;;;;;;;6.00;2.00;;;;;;;19.06;39.10;101774.06;5013810;28;20037;-58
2022/04/10 00:14:45;;;;;;;4.37;1.63;;;;;;;19.05;39.16;101772.34;5014563;28;20298;-57
2022/04/10 00:17:11;;;;;;;4.65;2.05;;;;;;;19.02;39.30;101769.94;5014303;28;20291;-58
2022/04/10 00:19:36;;;;;;;4.82;1.88;;;;;;;19.00;38.92;101767.41;5013910;28;20029;-57
2022/04/10 00:22:05;;;;;;;6.93;1.80;;;;;;;19.02;38.96;101764.66;5014256;28;20032;-57
2022/04/10 00:24:30;;;;;;;4.53;1.90;;;;;;;18.99;39.24;101765.72;5013567;28;20053;-58
2022/04/10 00:26:55;;;;;;;5.70;2.00;;;;;;;18.99;38.86;101762.22;5014337;28;20018;-57
2022/04/10 00:29:20;;;;;;;5.65;1.88;;;;;;;18.96;39.23;101771.22;5014550;28;20333;-57
2022/04/10 00:31:46;;;;;;;6.07;2.13;;;;;;;18.96;38.95;101770.34;5013506;28;20064;-57
2022/04/10 00:34:11;;;;;;;6.18;1.90;;;;;;;18.95;38.99;101771.34;5014081;28;20037;-58
2022/04/10 00:36:37;;;;;;;5.03;2.00;;;;;;;18.96;38.88;101765.94;5014321;28;20026;-57
2022/04/10 00:39:03;;;;;;;5.47;2.30;;;;;;;18.99;38.95;101762.22;5012941;28;20105;-57
2022/04/10 00:41:28;;;;;;;5.68;2.10;;;;;;;19.02;38.99;101762.84;5014162;28;20041;-58
2022/04/10 00:44:08;;;;;;;5.32;2.13;;;;;;;19.07;38.82;101762.50;5014018;28;20026;-57
2022/04/10 00:46:33;;;;;;;5.65;2.13;;;;;;;19.09;38.67;101765.91;5013299;28;20030;-57
2022/04/10 00:48:59;;;;;;;6.15;2.20;;;;;;;19.12;38.44;101762.19;5013867;28;20088;-57
2022/04/10 00:51:40;;;;;;;6.15;2.33;;;;;;;19.13;38.54;101759.44;5014075;28;20100;-57
2022/04/10 00:54:13;;;;;;;5.95;2.08;;;;;;;19.16;38.55;101761.03;5013112;28;20387;-57
2022/04/10 00:56:39;;;;;;;5.97;2.33;;;;;;;19.16;38.38;101759.22;5014038;28;20029;-57
2022/04/10 00:59:05;;;;;;;5.50;2.17;;;;;;;19.17;38.29;101754.81;5013440;28;20389;-55
2022/04/10 01:01:30;;;;;;;4.88;1.98;;;;;;;19.18;38.21;101753.84;5013107;28;20022;-56
2022/04/10 01:03:55;;;;;;;5.38;2.10;;;;;;;19.17;38.41;101754.81;5013345;28;20377;-56
2022/04/10 01:06:22;;;;;;;5.15;2.08;;;;;;;19.17;38.38;101754.81;5013420;28;20492;-56
2022/04/10 01:08:48;;;;;;;5.40;2.00;;;;;;;19.16;38.18;101756.59;5013192;28;20030;-56
2022/04/10 01:11:14;;;;;;;5.70;2.13;;;;;;;19.16;38.12;101758.38;5013619;28;20026;-57
2022/04/10 01:13:40;;;;;;;4.80;2.00;;;;;;;19.15;38.58;101761.97;5012447;28;20400;-56
2022/04/10 01:16:05;;;;;;;6.43;2.97;;;;;;;19.15;38.09;101759.34;5013196;28;20438;-56
2022/04/10 01:18:31;;;;;;;5.90;2.17;;;;;;;19.13;38.17;101756.81;5013377;28;20105;-57
2022/04/10 01:21:01;;;;;;;4.95;2.25;;;;;;;19.11;37.99;101758.72;5012604;28;20061;-57
2022/04/10 01:23:26;;;;;;;5.47;2.15;;;;;;;19.11;38.35;101758.72;5013504;28;20500;-57
2022/04/10 01:25:52;;;;;;;4.55;2.03;;;;;;;19.11;38.04;101760.53;5013077;28;20026;-57
2022/04/10 01:28:17;;;;;;;5.20;1.95;;;;;;;19.10;38.45;101762.31;5012794;28;20045;-56
2022/04/10 01:30:43;;;;;;;7.37;2.60;;;;;;;19.10;38.18;101759.66;5013374;28;20029;-57
2022/04/10 01:33:09;;;;;;;6.20;2.30;;;;;;;19.10;38.95;101757.00;5012824;28;20527;-57
2022/04/10 01:35:34;;;;;;;9.93;2.60;;;;;;;19.12;38.52;101765.69;5012763;28;20025;-56
2022/04/10 01:38:01;;;;;;;6.43;2.53;;;;;;;19.15;38.60;101764.63;5013107;28;20026;-57
2022/04/10 01:40:26;;;;;;;7.13;2.10;;;;;;;19.15;38.84;101761.97;5013352;28;20022;-57
2022/04/10 01:42:52;;;;;;;6.38;2.42;;;;;;;19.18;38.55;101765.25;5012081;28;20049;-56
2022/04/10 01:45:17;;;;;;;5.60;2.25;;;;;;;19.20;38.44;101762.47;5013162;28;20033;-56
2022/04/10 01:47:43;;;;;;;5.90;2.35;;;;;;;19.20;38.23;101766.00;5013062;28;20355;-57
2022/04/10 01:50:09;;;;;;;6.68;2.40;;;;;;;19.21;38.07;101767.66;5012430;28;20025;-57
2022/04/10 01:52:35;;;;;;;5.35;2.22;;;;;;;19.23;38.11;101774.66;5013292;28;20029;-57
2022/04/10 01:55:00;;;;;;;5.22;1.92;;;;;;;19.23;37.91;101769.38;5012889;28;20025;-57
2022/04/10 01:57:25;;;;;;;6.07;2.13;;;;;;;19.23;38.21;101770.19;5012509;28;20034;-57
2022/04/10 01:59:53;;;;;;;4.80;2.00;;;;;;;19.22;38.11;101781.75;5012620;28;20283;-57
2022/04/10 02:02:18;;;;;;;6.20;2.15;;;;;;;19.20;38.09;101776.56;5012830;28;20325;-57
2022/04/10 02:04:44;;;;;;;6.17;1.87;;;;;;;19.20;38.27;101784.50;5012178;28;20030;-57
2022/04/10 02:07:09;;;;;;;6.37;2.10;;;;;;;19.20;38.32;101788.91;5012817;28;20279;-57
2022/04/10 02:09:34;;;;;;;6.93;2.37;;;;;;;19.19;38.37;101784.59;5013180;28;20366;-57
2022/04/10 02:11:59;;;;;;;6.07;2.20;;;;;;;19.18;38.15;101783.75;5011848;28;20747;-58
2022/04/10 02:14:25;;;;;;;5.33;2.10;;;;;;;19.15;38.06;101783.97;5012664;28;20056;-57
2022/04/10 02:16:50;;;;;;;6.53;2.40;;;;;;;19.15;38.17;101777.81;5011744;28;20358;-57
2022/04/10 02:19:15;;;;;;;5.23;2.10;;;;;;;19.14;37.83;101776.16;5016592;28;20100;-57
2022/04/10 02:21:40;;;;;;;6.18;2.20;;;;;;;19.13;38.13;101780.56;5016990;28;20290;-57
2022/04/10 02:24:06;;;;;;;4.70;2.20;;;;;;;19.10;38.47;101772.88;5015677;28;20381;-57
2022/04/10 02:26:31;;;;;;;7.82;2.25;;;;;;;19.12;38.94;101778.03;5016717;28;20037;-58
2022/04/10 02:29:00;;;;;;;5.40;2.50;;;;;;;19.13;38.81;101780.56;5016400;28;20033;-57
2022/04/10 02:31:25;;;;;;;5.38;2.10;;;;;;;19.15;38.75;101781.34;5015885;28;20362;-57
2022/04/10 02:33:57;;;;;;;4.97;2.13;;;;;;;19.17;38.57;101775.94;5016460;28;20053;-57
2022/04/10 02:36:22;;;;;;;4.38;2.22;;;;;;;19.18;38.43;101781.13;5016395;28;20535;-57
2022/04/10 02:38:48;;;;;;;6.47;2.38;;;;;;;19.21;38.33;101783.53;5015739;28;20034;-56
2022/04/10 02:41:13;;;;;;;6.43;2.60;;;;;;;19.21;38.05;101780.03;5016478;28;20109;-56
2022/04/10 02:43:40;;;;;;;5.05;2.20;;;;;;;19.21;38.08;101777.41;5016409;28;20029;-56
2022/04/10 02:46:05;;;;;;;6.70;2.47;;;;;;;19.21;37.85;101786.16;5015205;28;20108;-56
2022/04/10 02:48:31;;;;;;;4.43;1.95;;;;;;;19.21;37.76;101793.25;5016487;28;20057;-57
2022/04/10 02:50:56;;;;;;;6.95;2.13;;;;;;;19.20;37.71;101789.78;5015965;28;20394;-56
2022/04/10 02:53:21;;;;;;;4.60;2.10;;;;;;;19.20;37.68;101789.78;5015637;28;20029;-56
2022/04/10 02:55:46;;;;;;;5.00;2.00;;;;;;;19.18;37.70;101788.19;5016125;28;20401;-56
2022/04/10 02:58:12;;;;;;;5.95;2.47;;;;;;;19.16;38.24;101795.38;5015946;28;20325;-56
2022/04/10 03:00:37;;;;;;;4.95;2.15;;;;;;;19.17;38.50;101802.38;5015264;28;20068;-56
2022/04/10 03:03:02;;;;;;;6.72;2.55;;;;;;;19.18;38.37;101804.03;5015899;28;20485;-56
2022/04/10 03:05:28;;;;;;;6.55;2.42;;;;;;;19.19;38.65;101797.81;5016130;28;20033;-56
2022/04/10 03:07:53;;;;;;;6.30;2.30;;;;;;;19.22;38.39;101805.53;5015038;28;20037;-56
2022/04/10 03:10:18;;;;;;;4.87;1.90;;;;;;;19.23;38.20;101796.63;5016108;28;20466;-56
2022/04/10 03:12:43;;;;;;;5.85;2.20;;;;;;;19.24;38.13;101798.31;5015765;28;20688;-56
2022/04/10 03:15:09;;;;;;;5.47;2.20;;;;;;;19.25;38.00;101797.38;5014164;28;20038;-56
2022/04/10 03:17:34;;;;;;;7.07;2.70;;;;;;;19.25;38.06;101804.44;5014831;28;20034;-56
2022/04/10 03:20:00;;;;;;;6.30;2.45;;;;;;;19.24;37.91;101806.25;5014434;28;20088;-56
2022/04/10 03:22:25;;;;;;;6.00;2.27;;;;;;;19.24;37.94;101800.13;5014017;28;20034;-56
2022/04/10 03:24:50;;;;;;;6.28;2.40;;;;;;;19.23;37.84;101803.72;5014025;28;20389;-57
2022/04/10 03:27:18;;;;;;;6.20;2.30;;;;;;;19.23;37.60;101801.06;5013724;28;20034;-56
2022/04/10 03:29:43;;;;;;;5.10;2.15;;;;;;;19.21;37.66;101798.53;5013901;28;20034;-56
2022/04/10 03:32:09;;;;;;;5.70;2.05;;;;;;;19.18;37.66;101804.03;5014265;28;20477;-56
2022/04/10 03:34:34;;;;;;;5.68;2.10;;;;;;;19.19;37.97;101813.66;5013831;28;20028;-59
2022/04/10 03:36:59;;;;;;;4.90;2.10;;;;;;;19.20;38.52;101816.19;5014362;28;20040;-56
2022/04/10 03:39:24;;;;;;;5.27;2.37;;;;;;;19.23;38.26;101814.28;5014225;28;20311;-57
2022/04/10 03:41:49;;;;;;;5.55;2.25;;;;;;;19.25;38.59;101813.25;5013323;28;20287;-57
2022/04/10 03:44:15;;;;;;;5.77;2.37;;;;;;;19.27;38.49;101816.59;5014214;28;20072;-56
2022/04/10 03:46:40;;;;;;;5.73;2.17;;;;;;;19.29;38.37;101813.84;5014020;28;20268;-55
2022/04/10 03:49:08;;;;;;;6.38;2.20;;;;;;;19.29;38.07;101821.78;5013047;28;20286;-57
2022/04/10 03:51:33;;;;;;;6.65;2.30;;;;;;;19.29;37.98;101822.63;5014220;28;20026;-57
2022/04/10 03:54:02;;;;;;;5.30;2.30;;;;;;;19.29;37.42;101827.06;5013776;28;20470;-56
2022/04/10 03:56:27;;;;;;;5.25;2.20;;;;;;;19.28;37.86;101822.72;5013316;28;20275;-57
2022/04/10 03:58:52;;;;;;;5.70;2.20;;;;;;;19.26;37.72;101822.84;5013671;28;20041;-57
2022/04/10 04:01:17;;;;;;;5.63;1.83;;;;;;;19.26;37.58;101833.41;5013950;28;20034;-57
2022/04/10 04:03:43;;;;;;;6.25;2.00;;;;;;;19.25;37.47;101825.59;5013257;28;20270;-56
2022/04/10 04:06:08;;;;;;;4.07;1.90;;;;;;;19.24;37.66;101827.38;5013719;28;20026;-56
2022/04/10 04:08:33;;;;;;;6.32;2.05;;;;;;;19.24;37.88;101826.56;5013931;28;20026;-57
2022/04/10 04:11:01;;;;;;;5.00;2.00;;;;;;;19.26;37.79;101833.41;5012684;28;20026;-56
2022/04/10 04:13:27;;;;;;;6.30;2.20;;;;;;;19.28;38.06;101831.53;4978752;28;1016395;-57
2022/04/10 04:15:55;;;;;;;6.23;2.13;;;;;;;19.29;38.10;101830.56;5014384;28;20168;-57
2022/04/10 04:18:20;;;;;;;5.65;2.47;;;;;;;19.30;37.88;101837.53;5014049;28;20280;-56
2022/04/10 04:20:45;;;;;;;4.60;2.07;;;;;;;19.31;37.88;101833.09;5014550;28;20063;-57
2022/04/10 04:23:10;;;;;;;6.20;2.33;;;;;;;19.30;37.48;101836.69;5014478;28;20276;-57
2022/04/10 04:25:36;;;;;;;5.22;2.10;;;;;;;19.28;37.83;101834.16;5013816;28;20329;-57
2022/04/10 04:28:01;;;;;;;6.70;2.72;;;;;;;19.27;37.85;101834.28;5014136;28;20037;-57
2022/04/10 04:30:26;;;;;;;4.33;1.87;;;;;;;19.26;37.63;101830.75;5014285;28;20153;-58
2022/04/10 04:32:51;;;;;;;4.90;2.00;;;;;;;19.25;37.36;101828.22;5014194;28;20065;-57
2022/04/10 04:35:19;;;;;;;5.43;2.40;;;;;;;19.23;37.37;101840.72;5014417;28;20317;-57
2022/04/10 04:37:45;;;;;;;4.82;2.20;;;;;;;19.23;37.77;101848.63;5013625;28;20018;-57
2022/04/10 04:40:15;;;;;;;4.97;2.00;;;;;;;19.23;37.88;101838.06;5013368;28;20076;-57
2022/04/10 04:42:41;;;;;;;5.03;2.15;;;;;;;19.25;38.08;101838.78;5014164;28;20041;-56
2022/04/10 04:45:06;;;;;;;5.75;2.03;;;;;;;19.25;38.10;101842.31;5013381;28;20041;-56
2022/04/10 04:47:32;;;;;;;5.82;2.08;;;;;;;19.26;37.95;101840.50;5014342;28;20088;-57
2022/04/10 04:49:57;;;;;;;5.82;2.72;;;;;;;19.27;38.12;101850.13;5014026;28;20092;-57
2022/04/10 04:52:22;;;;;;;4.37;1.90;;;;;;;19.30;38.68;101845.47;5013722;28;20069;-59
2022/04/10 04:54:47;;;;;;;4.38;1.90;;;;;;;19.34;38.55;101846.09;5014150;28;20656;-58
2022/04/10 04:57:13;;;;;;;5.47;2.00;;;;;;;19.39;38.59;101851.88;5013538;28;20474;-56
2022/04/10 04:59:38;;;;;;;5.13;2.05;;;;;;;19.40;38.60;101849.13;5013359;28;20362;-57
2022/04/10 05:02:03;;;;;;;5.80;1.67;;;;;;;19.39;38.90;101858.03;5013707;28;20026;-58
2022/04/10 05:04:29;;;;;;;3.78;1.50;;;;;;;19.41;38.97;101857.94;5014147;28;20042;-58
2022/04/10 05:06:54;;;;;;;4.55;1.80;;;;;;;19.39;39.31;101860.69;5012655;28;20018;-58
2022/04/10 05:09:19;;;;;;;5.37;1.70;;;;;;;19.39;39.27;101860.69;5013767;28;20133;-58
2022/04/10 05:11:48;;;;;;;4.73;1.80;;;;;;;19.39;39.40;101865.97;5013566;28;20781;-58
2022/04/10 05:14:13;;;;;;;5.07;1.98;;;;;;;19.40;39.86;101857.06;5012523;28;20307;-58
2022/04/10 05:16:38;;;;;;;5.65;1.60;;;;;;;19.44;40.01;101873.56;5013727;28;20053;-57
2022/04/10 05:19:03;;;;;;;6.00;1.88;;;;;;;19.47;40.20;101872.50;5013315;28;20026;-58
2022/04/10 05:21:35;;;;;;;3.75;1.70;;;;;;;19.49;39.58;101871.44;5012630;28;20044;-59
2022/04/10 05:24:00;;;;;;;4.18;1.98;;;;;;;19.51;39.22;101872.16;5013131;28;20050;-58
2022/04/10 05:26:25;;;;;;;5.60;1.73;;;;;;;19.52;39.62;101875.69;5013379;28;20026;-57
2022/04/10 05:28:53;;;;;;;4.07;1.45;;;;;;;19.51;40.10;101882.75;5012516;28;20030;-58
2022/04/10 05:31:18;;;;;;;5.50;1.80;;;;;;;19.53;39.99;101880.00;5013459;28;20026;-58
2022/04/10 05:33:44;;;;;;;6.23;1.83;;;;;;;19.56;40.17;101890.34;5013112;28;20385;-58
2022/04/10 05:36:09;;;;;;;4.90;1.70;;;;;;;19.58;40.00;101886.66;5012681;28;20310;-58
2022/04/10 05:38:34;;;;;;;4.10;1.40;;;;;;;19.61;40.04;101887.38;5013655;28;20275;-58
2022/04/10 05:41:02;;;;;;;4.73;1.57;;;;;;;19.63;40.00;101896.91;5012135;28;20033;-58
2022/04/10 05:43:29;;;;;;;5.47;1.63;;;;;;;19.68;39.98;101888.66;5013328;28;20275;-57
2022/04/10 05:45:55;;;;;;;4.57;1.90;;;;;;;19.72;39.89;101898.03;5012869;28;20108;-57
2022/04/10 05:48:21;;;;;;;5.80;1.65;;;;;;;19.71;40.20;101897.22;5012499;28;20118;-58
2022/04/10 05:50:47;;;;;;;7.47;1.75;;;;;;;19.69;40.34;101896.47;5013065;28;20022;-58
2022/04/10 05:53:12;;;;;;;6.05;1.55;;;;;;;19.71;40.59;101901.63;5012634;28;20171;-58
2022/04/10 05:55:37;;;;;;;4.80;1.83;;;;;;;19.71;40.53;101907.78;5012171;28;20030;-58
2022/04/10 05:58:05;;;;;;;4.45;1.42;;;;;;;19.73;40.63;101911.16;5012834;28;20034;-58
2022/04/10 06:00:31;;;;;;;4.75;1.60;;;;;;;19.75;40.61;101917.16;5013070;28;20376;-58
2022/04/10 06:03:03;;;;;;;5.73;1.50;;;;;;;19.79;40.41;101919.63;5011982;28;20041;-58
2022/04/10 06:05:29;;;;;;;5.60;1.75;;;;;;;19.80;40.72;101927.47;5013113;28;20276;-58
2022/04/10 06:07:54;;;;;;;4.68;1.60;;;;;;;19.81;40.71;101923.88;5012669;28;20488;-56
2022/04/10 06:10:20;;;;;;;4.60;1.33;;;;;;;19.81;40.43;101929.16;5012037;28;20026;-58
2022/04/10 06:12:45;;;;;;;5.97;1.60;;;;;;;19.81;40.61;101928.31;5012819;28;20033;-59
2022/04/10 06:15:10;;;;;;;5.72;1.45;;;;;;;19.80;40.70;101935.38;5012648;28;20358;-59
2022/04/10 06:17:36;;;;;;;3.65;1.60;;;;;;;19.79;41.00;101941.66;5012019;28;20024;-58
2022/04/10 06:20:01;;;;;;;3.87;1.40;;;;;;;19.81;40.96;101941.56;5012507;28;20542;-58
2022/04/10 06:22:26;;;;;;;4.77;1.53;;;;;;;19.81;41.04;101947.69;5012893;28;20291;-57
2022/04/10 06:24:53;;;;;;;4.20;1.50;;;;;;;19.80;41.00;101945.97;5011574;28;20358;-56
2022/04/10 06:27:19;;;;;;;4.05;1.30;;;;;;;19.80;40.93;101959.19;5012833;28;20022;-57
2022/04/10 06:29:45;;;;;;;5.20;1.52;;;;;;;19.78;41.11;101955.81;5012726;28;20080;-56
2022/04/10 06:32:10;;;;;;;4.80;1.40;;;;;;;19.75;41.22;101956.00;5011528;28;20072;-57
2022/04/10 06:34:35;;;;;;;5.20;1.70;;;;;;;19.73;41.47;101957.94;5012843;28;20172;-56
2022/04/10 06:37:00;;;;;;;5.87;1.33;;;;;;;19.74;41.79;101964.88;5012386;28;20017;-56
2022/04/10 06:39:26;;;;;;;5.47;1.50;;;;;;;19.72;41.37;101967.63;5011725;28;20270;-56
2022/04/10 06:41:51;;;;;;;5.28;1.50;;;;;;;19.73;41.64;101971.16;5012590;28;20040;-56
2022/04/10 06:44:17;;;;;;;4.90;1.52;;;;;;;19.71;41.58;101971.25;5011975;28;20018;-57
2022/04/10 06:46:48;;;;;;;5.10;1.50;;;;;;;19.72;41.76;101969.44;5012569;28;20049;-57
2022/04/10 06:49:13;;;;;;;3.95;1.40;;;;;;;19.71;41.82;101970.38;5012608;28;20036;-57
2022/04/10 06:51:42;;;;;;;5.85;1.63;;;;;;;19.73;41.77;101974.63;5011846;28;20406;-57
2022/04/10 06:54:10;;;;;;;4.28;1.38;;;;;;;19.75;41.58;101971.88;5012253;28;20080;-57
2022/04/10 06:56:36;;;;;;;5.15;1.50;;;;;;;19.75;41.82;101978.00;5012783;28;20037;-57
2022/04/10 06:59:01;;;;;;;3.80;1.58;;;;;;;19.77;42.11;101977.94;5011490;28;20469;-57
2022/04/10 07:01:27;;;;;;;4.05;1.35;;;;;;;19.79;42.24;101980.47;5012536;28;20156;-54
2022/04/10 07:03:52;;;;;;;5.75;1.83;;;;;;;19.79;42.06;101981.34;5013497;28;20029;-57
2022/04/10 07:06:17;;;;;;;5.40;1.67;;;;;;;19.81;42.08;101991.81;5015141;28;20120;-56
2022/04/10 07:08:43;;;;;;;4.75;1.55;;;;;;;19.80;41.95;101985.66;5016216;28;20022;-55
2022/04/10 07:11:08;;;;;;;3.80;1.23;;;;;;;19.81;42.16;101983.88;5015740;28;20025;-57
2022/04/10 07:13:33;;;;;;;7.18;1.80;;;;;;;19.86;42.01;101987.88;5014998;28;20090;-57
2022/04/10 07:15:58;;;;;;;7.25;1.52;;;;;;;19.98;41.99;101987.94;5015703;28;20057;-59
2022/04/10 07:18:24;;;;;;;8.65;1.77;;;;;;;20.13;41.96;101994.81;5015785;28;20022;-59
2022/04/10 07:20:49;;;;;;;5.10;1.38;;;;;;;20.26;41.87;101992.94;5014563;28;20117;-60
2022/04/10 07:25:58;;;;;;;4.67;1.33;;;;;;;20.56;41.42;102002.25;5015509;28;20443;-59
2022/04/10 07:28:24;;;;;;;5.60;1.57;;;;;;;20.68;41.05;101997.06;5014911;28;20112;-59
2022/04/10 07:30:49;;;;;;;4.03;1.40;;;;;;;20.77;40.89;101997.22;5015217;28;20338;-59
2022/04/10 07:33:15;;;;;;;4.63;1.40;;;;;;;20.83;40.92;102004.69;5015486;28;20081;-59
2022/04/10 07:35:46;;;;;;;4.78;1.40;;;;;;;20.88;40.05;102012.31;5014884;28;20355;-59
2022/04/10 07:38:12;;;;;;;4.20;1.35;;;;;;;20.89;40.43;102011.38;5015026;28;20480;-59
2022/04/10 07:40:43;;;;;;;5.65;1.40;;;;;;;20.94;40.47;102003.06;5014735;28;20038;-58
2022/04/10 07:43:09;;;;;;;5.35;1.55;;;;;;;20.97;39.96;102008.97;5015090;28;20474;-59
2022/04/10 07:48:23;;;;;;;7.20;1.70;;;;;;;21.05;38.96;102016.34;5015014;28;20064;-60
2022/04/10 07:50:49;;;;;;;5.38;1.30;;;;;;;21.05;39.66;102012.88;5014911;28;20156;-58
2022/04/10 07:53:17;;;;;;;5.00;1.55;;;;;;;21.07;40.04;102027.66;5015333;28;20054;-59
2022/04/10 07:55:43;;;;;;;4.32;1.30;;;;;;;21.07;40.08;102026.84;5014401;28;20029;-58
2022/04/10 07:58:11;;;;;;;4.75;1.50;;;;;;;21.06;39.83;102027.78;5014797;28;20029;-58
2022/04/10 08:00:37;;;;;;;5.22;1.40;;;;;;;21.09;40.33;102032.88;5014841;28;20434;-58
2022/04/10 08:03:02;;;;;;;7.32;1.58;;;;;;;21.11;40.42;102038.88;5014358;28;20149;-59
2022/04/10 08:05:28;;;;;;;6.03;1.95;;;;;;;21.12;40.26;102036.13;5015001;28;20022;-59
2022/04/10 08:07:59;;;;;;;4.53;1.38;;;;;;;21.16;40.22;102045.53;5014866;28;20108;-61
2022/04/10 08:10:25;;;;;;;3.17;1.00;;;;;;;21.19;40.17;102047.13;5014051;28;20385;-60
2022/04/10 08:12:51;;;;;;;4.57;1.30;;;;;;;21.20;40.48;102044.38;5014451;28;20037;-60
2022/04/10 08:15:16;;;;;;;4.05;1.10;;;;;;;21.17;40.64;102044.59;5013639;28;20156;-60
2022/04/10 08:17:41;;;;;;;4.15;1.30;;;;;;;21.19;40.01;102052.44;5014178;28;20046;-59
2022/04/10 08:20:08;;;;;;;4.20;1.30;;;;;;;21.19;40.08;102055.91;5014392;28;20033;-59
2022/04/10 08:22:36;;;;;;;4.85;1.63;;;;;;;21.17;39.93;102054.31;5013901;28;20030;-59
2022/04/10 08:25:02;;;;;;;6.78;1.35;;;;;;;21.21;39.95;102058.44;5014206;28;20045;-58
2022/04/10 08:27:28;;;;;;;4.55;1.25;;;;;;;21.22;39.86;102048.69;5014458;28;20022;-60
2022/04/10 08:29:53;;;;;;;5.00;1.45;;;;;;;21.18;40.24;102056.03;5013341;28;20480;-60
2022/04/10 08:32:19;;;;;;;4.68;1.20;;;;;;;21.17;39.65;102051.69;5014501;28;20030;-59
2022/04/10 08:34:44;;;;;;;6.30;1.20;;;;;;;21.16;39.75;102052.66;5014275;28;20379;-59
2022/04/10 08:37:09;;;;;;;5.30;1.33;;;;;;;21.15;39.93;102049.13;5013419;28;20041;-60
2022/04/10 08:39:37;;;;;;;4.80;1.20;;;;;;;21.14;39.90;102047.47;5014275;28;20037;-59
2022/04/10 08:42:05;;;;;;;5.00;1.17;;;;;;;21.10;40.21;102053.94;5014013;28;20026;-59
2022/04/10 08:44:31;;;;;;;4.00;1.05;;;;;;;21.09;40.22;102062.00;5013275;28;20018;-59
2022/04/10 08:46:58;;;;;;;3.95;1.35;;;;;;;21.05;39.73;102063.22;5013962;28;20032;-59
2022/04/10 08:49:31;;;;;;;4.93;1.35;;;;;;;21.00;39.74;102067.03;5014248;28;20022;-59
2022/04/10 08:51:58;;;;;;;4.78;1.50;;;;;;;21.00;39.74;102067.03;5013112;28;20021;-59
2022/04/10 08:54:25;;;;;;;4.97;1.63;;;;;;;21.04;39.83;102069.47;5014036;28;20026;-59
2022/04/10 08:56:50;;;;;;;3.85;1.10;;;;;;;21.02;39.78;102070.41;5013548;28;20478;-58
2022/04/10 08:59:20;;;;;;;6.15;1.40;;;;;;;21.02;39.57;102078.38;5013392;28;20037;-59
2022/04/10 09:01:46;;;;;;;4.03;1.50;;;;;;;20.95;39.96;102073.63;5014023;28;20030;-59
2022/04/10 09:04:13;;;;;;;4.53;1.30;;;;;;;20.92;39.96;102076.50;5013638;28;20045;-59
2022/04/10 09:06:42;;;;;;;5.93;1.15;;;;;;;20.91;39.86;102075.69;5013117;28;20030;-59
2022/04/10 09:09:16;;;;;;;5.93;1.52;;;;;;;20.90;39.86;102073.97;5013495;28;20322;-58
2022/04/10 09:11:42;;;;;;;;;;;;;;;20.88;40.12;102083.00;5014433;28;20030;-59
2022/04/10 09:14:10;;;;;;;4.93;1.20;;;;;;;20.86;40.21;102088.41;5012547;28;19971;-59
2022/04/10 09:16:36;;;;;;;4.78;1.10;;;;;;;20.83;40.05;102086.84;5013677;28;20025;-59
2022/04/10 09:19:08;;;;;;;3.15;1.05;;;;;;;20.81;40.38;102087.91;5012613;28;20029;-58
2022/04/10 09:21:39;;;;;;;5.97;1.40;;;;;;;20.77;40.16;102084.63;5013618;28;20370;-58
2022/04/10 09:24:10;;;;;;;5.10;1.20;;;;;;;20.75;40.25;102083.06;5013152;28;20025;-59
2022/04/10 09:26:46;;;;;;;5.28;1.20;;;;;;;20.73;40.08;102087.63;5012562;28;20026;-59
2022/04/10 09:29:13;;;;;;;6.18;1.38;;;;;;;20.71;40.05;102087.75;5013720;28;20033;-59
2022/04/10 09:31:38;;;;;;;4.90;1.50;;;;;;;20.72;40.31;102085.94;5013449;28;20026;-58
2022/04/10 09:34:05;;;;;;;6.45;1.50;;;;;;;20.71;40.42;102079.81;5012234;28;20157;-58
2022/04/10 09:36:45;;;;;;;3.97;1.05;;;;;;;20.70;40.25;102083.41;5013236;28;20025;-59
2022/04/10 09:39:36;;;;;;;5.95;2.40;;;;;;;20.71;40.40;102079.81;5013235;28;20386;-58
2022/04/10 09:42:09;;;;;;;3.53;1.00;;;;;;;20.71;40.38;102077.16;5012418;28;20030;-58
2022/04/10 09:44:36;;;;;;;4.80;1.10;;;;;;;20.72;40.39;102070.88;5013453;28;20033;-58
2022/04/10 09:47:03;;;;;;;4.63;1.52;;;;;;;20.72;40.51;102070.88;5012435;28;20053;-60
2022/04/10 09:49:55;;;;;;;5.70;1.40;;;;;;;20.76;40.64;102079.44;5013502;28;20164;-59
2022/04/10 09:52:23;;;;;;;4.07;1.10;;;;;;;20.76;40.47;102080.31;5012984;28;20599;-59
2022/04/10 09:54:51;;;;;;;5.10;1.23;;;;;;;20.75;40.46;102077.78;5012107;28;20026;-59
2022/04/10 09:57:18;;;;;;;5.72;1.15;;;;;;;20.74;40.48;102073.41;5013111;28;20034;-59
2022/04/10 09:59:48;;;;;;;4.82;1.00;;;;;;;20.67;38.98;102070.38;5012924;28;20470;-59
2022/04/10 10:02:16;;;;;;;6.65;1.08;;;;;;;20.65;39.98;102075.78;5012456;28;20049;-60
2022/04/10 10:04:43;;;;;;;4.32;1.10;;;;;;;20.64;40.18;102067.94;5013146;28;20034;-59
2022/04/10 10:07:11;;;;;;;4.47;1.50;;;;;;;20.66;40.24;102066.03;5012711;28;20514;-59
2022/04/10 10:09:38;;;;;;;5.57;1.23;;;;;;;20.67;40.03;102075.69;5012138;28;20050;-59
2022/04/10 10:12:04;;;;;;;4.30;1.20;;;;;;;20.67;40.42;102069.53;5012536;28;20022;-59
2022/04/10 10:14:31;;;;;;;4.30;1.40;;;;;;;20.69;40.27;102067.63;5012615;28;20049;-58
2022/04/10 10:17:01;;;;;;;4.43;1.20;;;;;;;20.71;40.39;102068.34;5011806;28;20053;-58
2022/04/10 10:19:34;;;;;;;4.40;1.35;;;;;;;20.68;39.82;102060.63;5012875;28;20030;-58
2022/04/10 10:22:03;;;;;;;4.85;1.27;;;;;;;20.64;40.60;102067.94;5012500;28;20026;-59
2022/04/10 10:24:45;;;;;;;7.25;1.52;;;;;;;20.63;40.67;102063.56;5011826;28;20018;-59
2022/04/10 10:27:38;;;;;;;5.05;1.58;;;;;;;20.63;40.75;102058.28;5012432;28;20420;-59
2022/04/10 10:30:28;;;;;;;5.53;1.40;;;;;;;20.64;40.79;102062.66;5011775;28;20053;-59
2022/04/10 10:33:11;;;;;;;4.90;1.27;;;;;;;20.62;41.12;102059.25;5012656;28;20046;-59
2022/04/10 10:35:55;;;;;;;5.72;1.05;;;;;;;20.59;40.83;102056.81;5012745;28;20037;-59
2022/04/10 10:38:22;;;;;;;3.42;1.15;;;;;;;20.55;39.97;102058.81;5012429;28;20026;-60
2022/04/10 10:40:52;;;;;;;5.85;1.23;;;;;;;20.51;40.32;102052.06;5016439;28;20069;-60
2022/04/10 10:43:30;;;;;;;5.03;1.20;;;;;;;20.50;40.43;102058.31;5015832;28;20113;-60
2022/04/10 10:45:57;;;;;;;5.40;1.35;;;;;;;20.50;40.83;102060.13;5016254;28;20067;-60
2022/04/10 10:48:26;;;;;;;5.93;1.55;;;;;;;20.47;40.97;102056.75;5016469;28;20052;-59
2022/04/10 10:50:53;;;;;;;5.65;1.80;;;;;;;20.47;40.14;102055.91;5015278;28;20022;-59
2022/04/10 10:53:51;;;;;;;5.20;1.73;;;;;;;20.43;40.56;102055.28;5016235;28;20055;-59
2022/04/10 10:56:17;;;;;;;6.13;2.20;;;;;;;20.44;40.83;102061.41;5016147;28;20386;-57
2022/04/10 10:58:42;;;;;;;9.37;2.43;;;;;;;20.44;40.80;102062.28;5015518;28;20026;-58
2022/04/10 11:01:08;;;;;;;9.35;2.65;;;;;;;20.48;41.00;102061.06;5016585;28;20626;-60
2022/04/10 11:04:22;;;;;;;9.90;2.33;;;;;;;20.52;41.18;102051.13;5016164;28;20026;-59
2022/04/10 11:06:48;;;;;;;6.57;2.75;;;;;;;20.54;40.98;102053.66;5019797;28;20034;-59
2022/04/10 11:09:29;;;;;;;9.23;2.25;;;;;;;20.54;41.14;102061.63;5016350;28;20022;-59
2022/04/10 11:12:00;;;;;;;7.68;2.22;;;;;;;20.55;41.22;102050.88;5015062;28;20109;-58
2022/04/10 11:14:52;;;;;;;6.85;1.98;;;;;;;20.59;41.26;102046.22;5015696;28;20403;-58
2022/04/10 11:17:25;;;;;;;7.05;2.05;;;;;;;20.62;41.16;102046.84;5016195;28;20026;-58
2022/04/10 11:19:57;;;;;;;9.38;2.28;;;;;;;20.67;41.59;102051.00;5014851;28;20041;-58
2022/04/10 11:22:23;;;;;;;11.30;2.88;;;;;;;20.70;41.15;102048.13;5015733;28;20078;-58
2022/04/10 11:24:58;;;;;;;9.82;2.25;;;;;;;20.71;41.06;102052.44;5015406;28;20053;-59
2022/04/10 11:27:43;;;;;;;6.80;2.17;;;;;;;20.73;41.60;102055.81;5015136;28;20077;-58
2022/04/10 11:30:13;;;;;;;6.15;2.10;;;;;;;20.72;41.68;102035.59;5015155;28;20036;-59